Observation data for Seminole on 01/19/2019      Previous  Date  Next       Current Mesonet Observations  Soil Data  Daily Summary Page  Observations in Plain Language
KSM1 190600Z 34015G21KT 03/M01 A301 RMK A01 T00321011  RH  074%=      5-min Rain = 0
KSM1 190605Z 34013G18KT 03/M01 A301 RMK A01 T00311011  RH  075%=      5-min Rain = 0
KSM1 190610Z 34013KT 03/M01 A301 RMK A01 T00301011  RH  075%=      5-min Rain = 0
KSM1 190615Z 34011G16KT 03/M01 A301 RMK A01 T00301011  RH  075%=      5-min Rain = 0
KSM1 190620Z 34013G18KT 03/M01 A3011 RMK A01 T00291010  RH  076%=      5-min Rain = 0
KSM1 190625Z 34012G17KT 03/M01 A3011 RMK A01 T00291009  RH  077%=      5-min Rain = 0
KSM1 190630Z 34013G19KT 03/M01 A3011 RMK A01 T00291008  RH  077%=      5-min Rain = 0
KSM1 190635Z 34011G16KT 03/M01 A3012 RMK A01 T00301007  RH  078%=      5-min Rain = 0
KSM1 190640Z 33011KT 03/M01 A3012 RMK A01 T00311006  RH  077%=      5-min Rain = 0
KSM1 190645Z 33013KT 03/M01 A3012 RMK A01 T00341005  RH  076%=      5-min Rain = 0
KSM1 190650Z 33017G23KT 04/M01 A3012 RMK A01 T00371006  RH  075%=      5-min Rain = 0
KSM1 190655Z 33019G26KT 04/M01 A3012 RMK A01 T00391006  RH  073%=      5-min Rain = 0
KSM1 190700Z 34019G25KT 04/M01 A3013 RMK A01 T00391008  RH  072%=      5-min Rain = 0
KSM1 190705Z 34020G26KT 04/M01 A3013 RMK A01 T00381009  RH  072%=      5-min Rain = 0
KSM1 190710Z 33019G26KT 04/M01 A3013 RMK A01 T00371011  RH  072%=      5-min Rain = 0
KSM1 190715Z 33024G32KT 04/M01 A3014 RMK A01 T00371014  RH  070%=      5-min Rain = 0
KSM1 190720Z 34024G32KT 04/M02 A3014 RMK A01 T00361017  RH  069%=      5-min Rain = 0
KSM1 190725Z 34023G29KT 03/M02 A3014 RMK A01 T00331019  RH  069%=      5-min Rain = 0
KSM1 190730Z 34021G28KT 03/M02 A3014 RMK A01 T00311021  RH  069%=      5-min Rain = 0
KSM1 190735Z 34017G22KT 03/M02 A3014 RMK A01 T00291021  RH  070%=      5-min Rain = 0
KSM1 190740Z 34017G25KT 03/M02 A3015 RMK A01 T00281021  RH  070%=      5-min Rain = 0
KSM1 190745Z 34015G22KT 03/M02 A3015 RMK A01 T00281021  RH  071%=      5-min Rain = 0
KSM1 190750Z 34016G22KT 03/M02 A3015 RMK A01 T00271019  RH  072%=      5-min Rain = 0
KSM1 190755Z 34015G21KT 03/M02 A3015 RMK A01 T00271018  RH  073%=      5-min Rain = 0
KSM1 190800Z 34016G22KT 03/M02 A3016 RMK A01 T00271018  RH  073%=      5-min Rain = 0
KSM1 190805Z 34015G22KT 03/M02 A3016 RMK A01 T00271017  RH  073%=      5-min Rain = 0
KSM1 190810Z 34014KT 03/M02 A3016 RMK A01 T00271018  RH  073%=      5-min Rain = 0
KSM1 190815Z 34016G24KT 03/M02 A3016 RMK A01 T00271021  RH  072%=      5-min Rain = 0
KSM1 190820Z 34023G32KT 03/M03 A3016 RMK A01 T00271028  RH  067%=      5-min Rain = 0
KSM1 190825Z 34020G29KT 03/M03 A3016 RMK A01 T00271031  RH  066%=      5-min Rain = 0
KSM1 190830Z 34015G20KT 03/M03 A3017 RMK A01 T00251031  RH  067%=      5-min Rain = 0
KSM1 190835Z 33014G20KT 02/M03 A3018 RMK A01 T00231030  RH  068%=      5-min Rain = 0
KSM1 190840Z 34019G31KT 02/M03 A3018 RMK A01 T00241031  RH  068%=      5-min Rain = 0
KSM1 190845Z 34017G24KT 02/M03 A3018 RMK A01 T00241032  RH  067%=      5-min Rain = 0
KSM1 190850Z 34016G23KT 02/M03 A3018 RMK A01 T00231033  RH  067%=      5-min Rain = 0
KSM1 190855Z 34016G23KT 02/M03 A3018 RMK A01 T00241033  RH  066%=      5-min Rain = 0
KSM1 190900Z 34014G22KT 02/M03 A3018 RMK A01 T00231033  RH  067%=      5-min Rain = 0
KSM1 190905Z 33013G19KT 02/M03 A3019 RMK A01 T00221033  RH  067%=      5-min Rain = 0
KSM1 190910Z 33014G19KT 02/M03 A3018 RMK A01 T00221032  RH  068%=      5-min Rain = 0
KSM1 190915Z 33014G20KT 02/M03 A3019 RMK A01 T00221031  RH  068%=      5-min Rain = 0
KSM1 190920Z 33014G21KT 02/M03 A3019 RMK A01 T00231031  RH  068%=      5-min Rain = 0
KSM1 190925Z 33014KT 02/M03 A3019 RMK A01 T00231031  RH  068%=      5-min Rain = 0
KSM1 190930Z 32013KT 02/M03 A3019 RMK A01 T00211030  RH  069%=      5-min Rain = 0
KSM1 190935Z 32014G20KT 02/M03 A3019 RMK A01 T00211028  RH  071%=      5-min Rain = 0
KSM1 190940Z 32015KT 02/M03 A3019 RMK A01 T00221027  RH  070%=      5-min Rain = 0
KSM1 190945Z 32016G23KT 02/M03 A3019 RMK A01 T00221028  RH  070%=      5-min Rain = 0
KSM1 190950Z 33016G22KT 02/M03 A3019 RMK A01 T00221029  RH  069%=      5-min Rain = 0
KSM1 190955Z 33015G21KT 02/M03 A302 RMK A01 T00231030  RH  069%=      5-min Rain = 0
KSM1 191000Z 33015G21KT 02/M03 A3019 RMK A01 T00231031  RH  068%=      5-min Rain = 0
KSM1 191005Z 34016G22KT 02/M03 A3019 RMK A01 T00241032  RH  067%=      5-min Rain = 0
KSM1 191010Z 34016G21KT 02/M03 A3019 RMK A01 T00241033  RH  066%=      5-min Rain = 0
KSM1 191015Z 33015KT 02/M03 A3019 RMK A01 T00241033  RH  067%=      5-min Rain = 0
KSM1 191020Z 34015G20KT 02/M03 A3019 RMK A01 T00241033  RH  066%=      5-min Rain = 0
KSM1 191025Z 34014G19KT 02/M03 A302 RMK A01 T00241033  RH  066%=      5-min Rain = 0
KSM1 191030Z 34014G19KT 02/M03 A3019 RMK A01 T00231033  RH  067%=      5-min Rain = 0
KSM1 191035Z 34013G18KT 02/M03 A302 RMK A01 T00231034  RH  066%=      5-min Rain = 0
KSM1 191040Z 33014KT 02/M03 A302 RMK A01 T00241034  RH  066%=      5-min Rain = 0
KSM1 191045Z 33012G17KT 02/M03 A302 RMK A01 T00231033  RH  066%=      5-min Rain = 0
KSM1 191050Z 34011KT 02/M03 A302 RMK A01 T00211033  RH  067%=      5-min Rain = 0
KSM1 191055Z 33012KT 02/M03 A302 RMK A01 T00211033  RH  068%=      5-min Rain = 0
KSM1 191100Z 33012G19KT 02/M03 A302 RMK A01 T00211033  RH  068%=      5-min Rain = 0
KSM1 191105Z 33011G16KT 02/M03 A3021 RMK A01 T00211033  RH  068%=      5-min Rain = 0
KSM1 191110Z 32012KT 02/M03 A3021 RMK A01 T00201033  RH  068%=      5-min Rain = 0
KSM1 191115Z 32010KT 02/M03 A3021 RMK A01 T00191033  RH  069%=      5-min Rain = 0
KSM1 191120Z 31010G15KT 02/M03 A3021 RMK A01 T00181033  RH  069%=      5-min Rain = 0
KSM1 191125Z 31011G17KT 02/M03 A3022 RMK A01 T00181032  RH  070%=      5-min Rain = 0
KSM1 191130Z 32010KT 02/M03 A3021 RMK A01 T00181032  RH  070%=      5-min Rain = 0
KSM1 191135Z 32010KT 02/M03 A3021 RMK A01 T00181032  RH  069%=      5-min Rain = 0
KSM1 191140Z 32010KT 02/M03 A3021 RMK A01 T00171033  RH  070%=      5-min Rain = 0
KSM1 191145Z 32010KT 02/M03 A3021 RMK A01 T00161033  RH  070%=      5-min Rain = 0
KSM1 191150Z 32010KT 02/M03 A3021 RMK A01 T00151033  RH  071%=      5-min Rain = 0
KSM1 191155Z 32010KT 02/M03 A3022 RMK A01 T00151033  RH  071%=      5-min Rain = 0
KSM1 191200Z 32009KT 02/M03 A3022 RMK A01 T00151034  RH  071%=      5-min Rain = 0
KSM1 191205Z 31008KT 01/M03 A3022 RMK A01 T00141034  RH  071%=      5-min Rain = 0
KSM1 191210Z 31008KT 01/M03 A3023 RMK A01 T00131034  RH  072%=      5-min Rain = 0
KSM1 191215Z 30008KT 01/M03 A3023 RMK A01 T00121034  RH  072%=      5-min Rain = 0
KSM1 191220Z 29008KT 01/M03 A3024 RMK A01 T00111034  RH  072%=      5-min Rain = 0
KSM1 191225Z 29008KT 01/M04 A3024 RMK A01 T00101035  RH  072%=      5-min Rain = 0
KSM1 191230Z 29007KT 01/M04 A3024 RMK A01 T00081035  RH  073%=      5-min Rain = 0
KSM1 191235Z 29007KT 01/M04 A3024 RMK A01 T00081035  RH  074%=      5-min Rain = 0
KSM1 191240Z 29007KT 01/M04 A3025 RMK A01 T00081035  RH  073%=      5-min Rain = 0
KSM1 191245Z 29007KT 01/M04 A3025 RMK A01 T00051036  RH  074%=      5-min Rain = 0
KSM1 191250Z 29008KT 01/M04 A3025 RMK A01 T00061035  RH  074%=      5-min Rain = 0
KSM1 191255Z 30008KT 01/M04 A3025 RMK A01 T00051036  RH  074%=      5-min Rain = 0
KSM1 191300Z 30008KT 00/M04 A3026 RMK A01 T00041036  RH  075%=      5-min Rain = 0
KSM1 191305Z 30008KT 00/M04 A3026 RMK A01 T00021037  RH  076%=      5-min Rain = 0
KSM1 191310Z 30009KT M00/M04 A3027 RMK A01 T10011038  RH  077%=      5-min Rain = 0
KSM1 191315Z 30009KT M00/M04 A3027 RMK A01 T10021038  RH  077%=      5-min Rain = 0
KSM1 191320Z 30009KT M00/M04 A3027 RMK A01 T10031038  RH  078%=      5-min Rain = 0
KSM1 191325Z 30008KT M00/M04 A3027 RMK A01 T10031038  RH  078%=      5-min Rain = 0
KSM1 191330Z 30009KT M00/M04 A3028 RMK A01 T10041039  RH  078%=      5-min Rain = 0
KSM1 191335Z 30009KT M00/M04 A3028 RMK A01 T10041039  RH  078%=      5-min Rain = 0
KSM1 191340Z 30009KT M00/M04 A3028 RMK A01 T10031039  RH  077%=      5-min Rain = 0
KSM1 191345Z 31009KT M00/M04 A3028 RMK A01 T10031039  RH  077%=      5-min Rain = 0
KSM1 191350Z 31010KT M00/M04 A3028 RMK A01 T10031039  RH  077%=      5-min Rain = 0
KSM1 191355Z 31010KT M00/M04 A3028 RMK A01 T10021039  RH  077%=      5-min Rain = 0
KSM1 191400Z 31009KT M00/M04 A3029 RMK A01 T10011039  RH  076%=      5-min Rain = 0
KSM1 191405Z 31010KT 00/M04 A3029 RMK A01 T00011039  RH  075%=      5-min Rain = 0
KSM1 191410Z 31009KT 00/M04 A3029 RMK A01 T00011039  RH  075%=      5-min Rain = 0
KSM1 191415Z 31009KT 00/M04 A3029 RMK A01 T00011039  RH  075%=      5-min Rain = 0
KSM1 191420Z 31010KT 00/M04 A3029 RMK A01 T00011040  RH  074%=      5-min Rain = 0
KSM1 191425Z 31010KT 00/M04 A3029 RMK A01 T00021039  RH  074%=      5-min Rain = 0
KSM1 191430Z 31009KT 00/M04 A303 RMK A01 T00041039  RH  073%=      5-min Rain = 0
KSM1 191435Z 31009KT 01/M04 A303 RMK A01 T00061039  RH  073%=      5-min Rain = 0
KSM1 191440Z 31008KT 01/M04 A303 RMK A01 T00081038  RH  072%=      5-min Rain = 0
KSM1 191445Z 31009KT 01/M04 A303 RMK A01 T00101037  RH  071%=      5-min Rain = 0
KSM1 191450Z 31009KT 01/M04 A3031 RMK A01 T00141037  RH  069%=      5-min Rain = 0
KSM1 191455Z 32010KT 02/M04 A3031 RMK A01 T00181037  RH  068%=      5-min Rain = 0
KSM1 191500Z 32012KT 02/M04 A3031 RMK A01 T00231036  RH  066%=      5-min Rain = 0
KSM1 191505Z 33012KT 03/M04 A3031 RMK A01 T00281036  RH  063%=      5-min Rain = 0
KSM1 191510Z 33012G18KT 03/M04 A3031 RMK A01 T00321035  RH  062%=      5-min Rain = 0
KSM1 191515Z 33012G17KT 04/M04 A3031 RMK A01 T00371035  RH  059%=      5-min Rain = 0
KSM1 191520Z 33013KT 04/M04 A3031 RMK A01 T00421036  RH  057%=      5-min Rain = 0
KSM1 191525Z 33013G18KT 05/M04 A3031 RMK A01 T00451037  RH  056%=      5-min Rain = 0
KSM1 191530Z 33013G18KT 05/M04 A3032 RMK A01 T00491037  RH  054%=      5-min Rain = 0
KSM1 191535Z 33014KT 05/M04 A3032 RMK A01 T00521038  RH  052%=      5-min Rain = 0
KSM1 191540Z 33013G19KT 06/M04 A3033 RMK A01 T00561037  RH  051%=      5-min Rain = 0
KSM1 191545Z 33013KT 06/M04 A3033 RMK A01 T00591037  RH  050%=      5-min Rain = 0
KSM1 191550Z 33014G19KT 06/M04 A3033 RMK A01 T00621038  RH  049%=      5-min Rain = 0
KSM1 191555Z 34014G20KT 06/M04 A3033 RMK A01 T00641040  RH  048%=      5-min Rain = 0
KSM1 191600Z 34015G20KT 07/M04 A3033 RMK A01 T00651040  RH  047%=      5-min Rain = 0
KSM1 191605Z 34016G22KT 07/M04 A3033 RMK A01 T00661042  RH  046%=      5-min Rain = 0
KSM1 191610Z 34016G23KT 07/M04 A3034 RMK A01 T00671044  RH  045%=      5-min Rain = 0
KSM1 191615Z 33015G20KT 07/M04 A3034 RMK A01 T00691042  RH  045%=      5-min Rain = 0
KSM1 191620Z 34015G21KT 07/M04 A3034 RMK A01 T00711042  RH  045%=      5-min Rain = 0
KSM1 191625Z 34015G20KT 07/M04 A3034 RMK A01 T00731042  RH  044%=      5-min Rain = 0
KSM1 191630Z 34014G19KT 08/M04 A3035 RMK A01 T00751043  RH  043%=      5-min Rain = 0
KSM1 191635Z 34015KT 08/M04 A3035 RMK A01 T00781044  RH  042%=      5-min Rain = 0
KSM1 191640Z 35013G20KT 08/M04 A3035 RMK A01 T00801044  RH  042%=      5-min Rain = 0
KSM1 191645Z 34014G19KT 08/M05 A3035 RMK A01 T00801045  RH  041%=      5-min Rain = 0
KSM1 191650Z 35016KT 08/M05 A3035 RMK A01 T00791046  RH  041%=      5-min Rain = 0
KSM1 191655Z 35015G20KT 08/M05 A3035 RMK A01 T00811045  RH  041%=      5-min Rain = 0
KSM1 191700Z 35016G23KT 08/M05 A3035 RMK A01 T00821045  RH  040%=      5-min Rain = 0
KSM1 191705Z 35015G21KT 09/M04 A3036 RMK A01 T00851044  RH  040%=      5-min Rain = 0
KSM1 191710Z 36016KT 08/M04 A3036 RMK A01 T00841044  RH  040%=      5-min Rain = 0
KSM1 191715Z 35015G21KT 09/M04 A3036 RMK A01 T00861043  RH  040%=      5-min Rain = 0
KSM1 191720Z 35014KT 09/M04 A3036 RMK A01 T00881043  RH  040%=      5-min Rain = 0
KSM1 191725Z 34014G20KT 09/M04 A3036 RMK A01 T00881043  RH  039%=      5-min Rain = 0
KSM1 191730Z 36015KT 09/M04 A3035 RMK A01 T00861043  RH  040%=      5-min Rain = 0
KSM1 191735Z 36014KT 09/M04 A3036 RMK A01 T00871042  RH  040%=      5-min Rain = 0
KSM1 191740Z 00013G18KT 09/M04 A3036 RMK A01 T00901041  RH  039%=      5-min Rain = 0
KSM1 191745Z 35012G17KT 09/M04 A3036 RMK A01 T00921041  RH  039%=      5-min Rain = 0
KSM1 191750Z 34010KT 09/M04 A3036 RMK A01 T00921041  RH  039%=      5-min Rain = 0
KSM1 191755Z 33011G16KT 09/M04 A3036 RMK A01 T00941042  RH  038%=      5-min Rain = 0
KSM1 191800Z 35011G16KT 10/M04 A3036 RMK A01 T00951041  RH  038%=      5-min Rain = 0
KSM1 191805Z 32011G17KT 10/M04 A3035 RMK A01 T00961041  RH  038%=      5-min Rain = 0
KSM1 191810Z 34011KT 10/M04 A3035 RMK A01 T01001041  RH  037%=      5-min Rain = 0
KSM1 191815Z 32011G16KT 10/M04 A3035 RMK A01 T00991042  RH  037%=      5-min Rain = 0
KSM1 191820Z 33009KT 10/M04 A3035 RMK A01 T00981042  RH  037%=      5-min Rain = 0
KSM1 191825Z 34010G16KT 10/M04 A3034 RMK A01 T01021042  RH  036%=      5-min Rain = 0
KSM1 191830Z 34010G15KT 11/M04 A3034 RMK A01 T01051042  RH  035%=      5-min Rain = 0
KSM1 191835Z 33010KT 10/M04 A3034 RMK A01 T01031043  RH  036%=      5-min Rain = 0
KSM1 191840Z 33010G18KT 10/M04 A3034 RMK A01 T01041042  RH  036%=      5-min Rain = 0
KSM1 191845Z 32009G14KT 11/M04 A3033 RMK A01 T01061043  RH  035%=      5-min Rain = 0
KSM1 191850Z 32006G12KT 11/M04 A3033 RMK A01 T01051042  RH  035%=      5-min Rain = 0
KSM1 191855Z 33008G13KT 11/M04 A3033 RMK A01 T01081043  RH  034%=      5-min Rain = 0
KSM1 191900Z 33007G13KT 11/M04 A3033 RMK A01 T01091044  RH  034%=      5-min Rain = 0
KSM1 191905Z 34009KT 11/M04 A3033 RMK A01 T01121043  RH  034%=      5-min Rain = 0
KSM1 191910Z 30007KT 11/M05 A3032 RMK A01 T01111045  RH  033%=      5-min Rain = 0
KSM1 191915Z 30009KT 11/M05 A3032 RMK A01 T01111045  RH  033%=      5-min Rain = 0
KSM1 191920Z 32006KT 11/M05 A3032 RMK A01 T01091045  RH  034%=      5-min Rain = 0
KSM1 191925Z 32008KT 11/M05 A3032 RMK A01 T01131046  RH  033%=      5-min Rain = 0
KSM1 191930Z 32009KT 12/M05 A3031 RMK A01 T01151045  RH  033%=      5-min Rain = 0
KSM1 191935Z 31009G14KT 12/M05 A3031 RMK A01 T01171046  RH  032%=      5-min Rain = 0
KSM1 191940Z 29009G14KT 12/M05 A303 RMK A01 T01191048  RH  031%=      5-min Rain = 0
KSM1 191945Z 30007G15KT 12/M05 A303 RMK A01 T01221046  RH  031%=      5-min Rain = 0
KSM1 191950Z 32011KT 12/M05 A3029 RMK A01 T01221049  RH  030%=      5-min Rain = 0
KSM1 191955Z 30008KT 12/M05 A3029 RMK A01 T01231049  RH  030%=      5-min Rain = 0
KSM1 192000Z 29008G13KT 12/M05 A3029 RMK A01 T01241051  RH  029%=      5-min Rain = 0
KSM1 192005Z 29009G15KT 13/M05 A3029 RMK A01 T01261052  RH  028%=      5-min Rain = 0
KSM1 192010Z 31011KT 13/M06 A3029 RMK A01 T01251055  RH  028%=      5-min Rain = 0
KSM1 192015Z 31008G15KT 13/M06 A3028 RMK A01 T01251055  RH  028%=      5-min Rain = 0
KSM1 192020Z 30010G15KT 13/M06 A3028 RMK A01 T01281056  RH  027%=      5-min Rain = 0
KSM1 192025Z 29010G15KT 13/M06 A3028 RMK A01 T01291056  RH  027%=      5-min Rain = 0
KSM1 192030Z 29011G18KT 13/M06 A3028 RMK A01 T01281060  RH  027%=      5-min Rain = 0
KSM1 192035Z 29009G14KT 13/M06 A3028 RMK A01 T01321060  RH  026%=      5-min Rain = 0
KSM1 192040Z 30010KT 13/M06 A3027 RMK A01 T01311063  RH  026%=      5-min Rain = 0
KSM1 192045Z 31007KT 13/M07 A3027 RMK A01 T01321065  RH  025%=      5-min Rain = 0
KSM1 192050Z 32007G15KT 13/M06 A3027 RMK A01 T01331061  RH  025%=      5-min Rain = 0
KSM1 192055Z 32010G16KT 13/M07 A3026 RMK A01 T01341068  RH  024%=      5-min Rain = 0
KSM1 192100Z 30010G15KT 14/M07 A3026 RMK A01 T01361067  RH  024%=      5-min Rain = 0
KSM1 192105Z 30010G16KT 14/M07 A3026 RMK A01 T01361067  RH  024%=      5-min Rain = 0
KSM1 192110Z 31009G15KT 14/M07 A3026 RMK A01 T01351067  RH  024%=      5-min Rain = 0
KSM1 192115Z 30010KT 13/M07 A3025 RMK A01 T01341069  RH  024%=      5-min Rain = 0
KSM1 192120Z 29009G14KT 13/M07 A3025 RMK A01 T01341069  RH  024%=      5-min Rain = 0
KSM1 192125Z 32008G13KT 14/M07 A3025 RMK A01 T01361068  RH  024%=      5-min Rain = 0
KSM1 192130Z 32008KT 13/M07 A3025 RMK A01 T01341070  RH  024%=      5-min Rain = 0
KSM1 192135Z 29007KT 14/M07 A3025 RMK A01 T01381069  RH  023%=      5-min Rain = 0
KSM1 192140Z 30010KT 14/M07 A3025 RMK A01 T01391071  RH  023%=      5-min Rain = 0
KSM1 192145Z 30007KT 14/M07 A3025 RMK A01 T01361071  RH  023%=      5-min Rain = 0
KSM1 192150Z 29011G17KT 14/M07 A3025 RMK A01 T01361071  RH  023%=      5-min Rain = 0
KSM1 192155Z 29006KT 14/M07 A3025 RMK A01 T01361071  RH  023%=      5-min Rain = 0
KSM1 192200Z 30010KT 14/M08 A3025 RMK A01 T01351075  RH  022%=      5-min Rain = 0
KSM1 192205Z 30009G14KT 14/M07 A3025 RMK A01 T01361074  RH  022%=      5-min Rain = 0
KSM1 192210Z 29010G15KT 14/M08 A3025 RMK A01 T01381077  RH  022%=      5-min Rain = 0
KSM1 192215Z 29010KT 14/M08 A3025 RMK A01 T01371077  RH  022%=      5-min Rain = 0
KSM1 192220Z 30008KT 14/M08 A3025 RMK A01 T01351077  RH  022%=      5-min Rain = 0
KSM1 192225Z 31006G11KT 14/M08 A3025 RMK A01 T01361076  RH  022%=      5-min Rain = 0
KSM1 192230Z 29008G14KT 14/M08 A3025 RMK A01 T01371078  RH  022%=      5-min Rain = 0
KSM1 192235Z 30009KT 14/M08 A3025 RMK A01 T01361081  RH  021%=      5-min Rain = 0
KSM1 192240Z 31008KT 14/M08 A3025 RMK A01 T01351082  RH  021%=      5-min Rain = 0
KSM1 192245Z 32007KT 14/M08 A3025 RMK A01 T01351082  RH  021%=      5-min Rain = 0
KSM1 192250Z 30009KT 14/M08 A3025 RMK A01 T01361079  RH  022%=      5-min Rain = 0
KSM1 192255Z 29009KT 13/M08 A3025 RMK A01 T01341081  RH  022%=      5-min Rain = 0
KSM1 192300Z 28007KT 13/M08 A3025 RMK A01 T01341083  RH  021%=      5-min Rain = 0
KSM1 192305Z 29005KT 14/M08 A3025 RMK A01 T01351081  RH  022%=      5-min Rain = 0
KSM1 192310Z 31007KT 13/M08 A3025 RMK A01 T01341079  RH  022%=      5-min Rain = 0
KSM1 192315Z 32005KT 13/M08 A3025 RMK A01 T01331079  RH  022%=      5-min Rain = 0
KSM1 192320Z 31005KT 13/M08 A3025 RMK A01 T01331078  RH  022%=      5-min Rain = 0
KSM1 192325Z 31004KT 13/M08 A3025 RMK A01 T01331077  RH  022%=      5-min Rain = 0
KSM1 192330Z 29005KT 13/M08 A3025 RMK A01 T01321078  RH  023%=      5-min Rain = 0
KSM1 192335Z 28003KT 13/M08 A3025 RMK A01 T01321076  RH  023%=      5-min Rain = 0
KSM1 192340Z 27005KT 13/M08 A3025 RMK A01 T01311078  RH  023%=      5-min Rain = 0
KSM1 192345Z 26004KT 13/M08 A3025 RMK A01 T01291076  RH  023%=      5-min Rain = 0
KSM1 192350Z 26004KT 13/M08 A3025 RMK A01 T01271076  RH  023%=      5-min Rain = 0
KSM1 192355Z 27003KT 13/M08 A3025 RMK A01 T01251077  RH  024%=      5-min Rain = 0
KSM1 200000Z 27004KT 12/M08 A3025 RMK A01 T01241077  RH  024%=      5-min Rain = 0
KSM1 200005Z 26003KT 12/M08 A3025 RMK A01 T01201076  RH  025%=      5-min Rain = 0
KSM1 200010Z 25002KT 12/M07 A3025 RMK A01 T01151074  RH  026%=      5-min Rain = 0
KSM1 200015Z 30003KT 11/M08 A3025 RMK A01 T01061075  RH  027%=      5-min Rain = 0
KSM1 200020Z 28003KT 11/M07 A3025 RMK A01 T01051074  RH  028%=      5-min Rain = 0
KSM1 200025Z 26003KT 11/M07 A3025 RMK A01 T01051073  RH  028%=      5-min Rain = 0
KSM1 200030Z 26002KT 10/M07 A3025 RMK A01 T01021071  RH  029%=      5-min Rain = 0
KSM1 200035Z 26002KT 10/M07 A3025 RMK A01 T01001070  RH  030%=      5-min Rain = 0
KSM1 200040Z 26001KT 10/M07 A3026 RMK A01 T00951073  RH  030%=      5-min Rain = 0
KSM1 200045Z 26002KT 09/M07 A3026 RMK A01 T00861074  RH  031%=      5-min Rain = 0
KSM1 200050Z 26002KT 08/M07 A3026 RMK A01 T00831073  RH  032%=      5-min Rain = 0
KSM1 200055Z 26001KT 08/M07 A3026 RMK A01 T00781074  RH  033%=      5-min Rain = 0
KSM1 200100Z 26001KT 08/M07 A3026 RMK A01 T00751072  RH  034%=      5-min Rain = 0
KSM1 200105Z 26001KT 08/M07 A3026 RMK A01 T00761073  RH  034%=      5-min Rain = 0
KSM1 200110Z 26002KT 08/M07 A3026 RMK A01 T00761073  RH  034%=      5-min Rain = 0
KSM1 200115Z 25003KT 08/M07 A3026 RMK A01 T00791070  RH  034%=      5-min Rain = 0
KSM1 200120Z 25001KT 08/M07 A3026 RMK A01 T00761070  RH  035%=      5-min Rain = 0
KSM1 200125Z 27002KT 07/M07 A3026 RMK A01 T00691070  RH  036%=      5-min Rain = 0
KSM1 200130Z 29002KT 06/M07 A3026 RMK A01 T00631068  RH  038%=      5-min Rain = 0
KSM1 200135Z 29002KT 06/M07 A3026 RMK A01 T00611067  RH  039%=      5-min Rain = 0
KSM1 200140Z 29002KT 06/M07 A3026 RMK A01 T00601067  RH  040%=      5-min Rain = 0
KSM1 200145Z 30000KT 05/M07 A3026 RMK A01 T00541067  RH  041%=      5-min Rain = 0
KSM1 200150Z 31001KT 05/M07 A3026 RMK A01 T00461066  RH  044%=      5-min Rain = 0
KSM1 200155Z 32001KT 05/M07 A3025 RMK A01 T00511070  RH  041%=      5-min Rain = 0
KSM1 200200Z 33001KT 06/M07 A3025 RMK A01 T00581071  RH  039%=      5-min Rain = 0
KSM1 200205Z 09003KT 05/M07 A3025 RMK A01 T00501068  RH  042%=      5-min Rain = 0
KSM1 200210Z 09005KT 05/M07 A3025 RMK A01 T00471069  RH  043%=      5-min Rain = 0
KSM1 200215Z 10006KT 05/M07 A3026 RMK A01 T00501070  RH  042%=      5-min Rain = 0
KSM1 200220Z 10006KT 05/M07 A3026 RMK A01 T00481065  RH  044%=      5-min Rain = 0
KSM1 200225Z 10004KT 04/M06 A3026 RMK A01 T00441064  RH  045%=      5-min Rain = 0
KSM1 200230Z 11006KT 05/M06 A3026 RMK A01 T00471062  RH  045%=      5-min Rain = 0
KSM1 200235Z 11005KT 05/M06 A3027 RMK A01 T00501062  RH  044%=      5-min Rain = 0
KSM1 200240Z 11003KT 05/M06 A3028 RMK A01 T00531063  RH  043%=      5-min Rain = 0
KSM1 200245Z 12003KT 05/M06 A3028 RMK A01 T00511064  RH  043%=      5-min Rain = 0
KSM1 200250Z 12002KT 05/M06 A3029 RMK A01 T00501063  RH  044%=      5-min Rain = 0
KSM1 200255Z 13001KT 05/M06 A3029 RMK A01 T00521061  RH  044%=      5-min Rain = 0
KSM1 200300Z 22002KT 05/M06 A303 RMK A01 T00521057  RH  045%=      5-min Rain = 0
KSM1 200305Z 19002KT 06/M06 A303 RMK A01 T00561064  RH  042%=      5-min Rain = 0
KSM1 200310Z 20002KT 06/M06 A303 RMK A01 T00551059  RH  044%=      5-min Rain = 0
KSM1 200315Z 20002KT 05/M06 A3031 RMK A01 T00471058  RH  046%=      5-min Rain = 0
KSM1 200320Z 18003KT 04/M06 A303 RMK A01 T00361062  RH  049%=      5-min Rain = 0
KSM1 200325Z 17005KT 03/M06 A3028 RMK A01 T00301061  RH  051%=      5-min Rain = 0
KSM1 200330Z 15004KT 03/M06 A3028 RMK A01 T00251062  RH  053%=      5-min Rain = 0
KSM1 200335Z 13005KT 02/M06 A3028 RMK A01 T00211061  RH  055%=      5-min Rain = 0
KSM1 200340Z 14005KT 03/M06 A3028 RMK A01 T00311059  RH  052%=      5-min Rain = 0
KSM1 200345Z 13005KT 04/M06 A3028 RMK A01 T00351060  RH  050%=      5-min Rain = 0
KSM1 200350Z 14006KT 04/M06 A3027 RMK A01 T00371059  RH  049%=      5-min Rain = 0
KSM1 200355Z 14005KT 04/M06 A3027 RMK A01 T00351061  RH  049%=      5-min Rain = 0
KSM1 200400Z 14006KT 03/M06 A3027 RMK A01 T00331060  RH  051%=      5-min Rain = 0
KSM1 200405Z 14006KT 03/M06 A3027 RMK A01 T00281059  RH  053%=      5-min Rain = 0
KSM1 200410Z 14005KT 03/M06 A3028 RMK A01 T00251059  RH  054%=      5-min Rain = 0
KSM1 200415Z 14006KT 03/M06 A3027 RMK A01 T00271061  RH  052%=      5-min Rain = 0
KSM1 200420Z 14006KT 03/M06 A3027 RMK A01 T00271062  RH  052%=      5-min Rain = 0
KSM1 200425Z 16006KT 03/M06 A3027 RMK A01 T00261060  RH  053%=      5-min Rain = 0
KSM1 200430Z 16005KT 03/M06 A3027 RMK A01 T00281058  RH  053%=      5-min Rain = 0
KSM1 200435Z 15005KT 03/M06 A3028 RMK A01 T00301057  RH  053%=      5-min Rain = 0
KSM1 200440Z 15005KT 03/M06 A3028 RMK A01 T00321056  RH  052%=      5-min Rain = 0
KSM1 200445Z 16005KT 03/M06 A3028 RMK A01 T00311055  RH  053%=      5-min Rain = 0
KSM1 200450Z 16005KT 03/M05 A3028 RMK A01 T00281053  RH  055%=      5-min Rain = 0
KSM1 200455Z 15006KT 03/M06 A3028 RMK A01 T00291055  RH  054%=      5-min Rain = 0
KSM1 200500Z 15006KT 03/M06 A3028 RMK A01 T00291055  RH  054%=      5-min Rain = 0
KSM1 200505Z 16006KT 03/M06 A3028 RMK A01 T00261055  RH  055%=      5-min Rain = 0
KSM1 200510Z 15005KT 02/M06 A3028 RMK A01 T00221055  RH  057%=      5-min Rain = 0
KSM1 200515Z 15005KT 02/M06 A3028 RMK A01 T00211055  RH  057%=      5-min Rain = 0
KSM1 200520Z 16006KT 02/M06 A3028 RMK A01 T00181055  RH  059%=      5-min Rain = 0
KSM1 200525Z 16006KT 02/M06 A3029 RMK A01 T00151055  RH  060%=      5-min Rain = 0
KSM1 200530Z 15006KT 02/M06 A3029 RMK A01 T00171055  RH  059%=      5-min Rain = 0
KSM1 200535Z 15006KT 02/M05 A3029 RMK A01 T00201054  RH  058%=      5-min Rain = 0
KSM1 200540Z 16006KT 02/M05 A3029 RMK A01 T00201054  RH  058%=      5-min Rain = 0
KSM1 200545Z 16007KT 02/M05 A3029 RMK A01 T00151054  RH  060%=      5-min Rain = 0
KSM1 200550Z 16007KT 01/M05 A3029 RMK A01 T00091052  RH  064%=      5-min Rain = 0
KSM1 200555Z 16007KT 01/M05 A3029 RMK A01 T00071049  RH  066%=      5-min Rain = 0

Page generated in 0.0309 seconds.